Time;durP1;ratioP1;P1;durP2;ratioP2;P2;SDS_P1;SDS_P2;PMS_P1;PMS_P2;Temp;Humidity;BMP_temperature;BMP_pressure;BME280_temperature;BME280_humidity;BME280_pressure;Samples;Min_cycle;Max_cycle;Signal;HPM_P1;HPM_P2
2021/04/06 00:00:00;;;;;;;0.30;0.30;;;6.60;99.90;5.10;95378.00;;;;4898193;29;20238;-82
2021/04/06 00:02:51;;;;;;;0.30;0.30;;;6.40;99.90;5.10;95388.00;;;;4893137;29;20217;-83
2021/04/06 00:05:41;;;;;;;3.50;0.40;;;6.30;99.90;5.00;95384.00;;;;4897976;29;20292;-83
2021/04/06 00:08:31;;;;;;;0.23;0.23;;;6.20;99.90;5.00;95376.00;;;;4898832;29;20465;-83
2021/04/06 00:11:20;;;;;;;0.30;0.30;;;6.10;99.90;4.70;95384.00;;;;4897106;29;20441;-82
2021/04/06 00:14:09;;;;;;;0.30;0.30;;;6.00;99.90;4.60;95400.00;;;;4904105;29;20464;-83
2021/04/06 00:17:00;;;;;;;0.27;0.27;;;5.80;99.90;4.60;95387.00;;;;4893779;29;20479;-84
2021/04/06 00:19:50;;;;;;;2.73;0.37;;;5.70;99.90;4.40;95407.00;;;;4886698;29;21121;-81
2021/04/06 00:22:38;;;;;;;0.20;0.20;;;5.60;99.90;4.50;95399.00;;;;4905219;29;20443;-82
2021/04/06 00:25:30;;;;;;;0.20;0.20;;;5.50;99.90;4.50;95381.00;;;;4899932;29;20443;-83
2021/04/06 00:28:25;;;;;;;0.30;0.30;;;5.50;99.90;4.20;95377.00;;;;4898892;29;20457;-82
2021/04/06 00:31:14;;;;;;;0.30;0.30;;;5.40;99.90;4.00;95382.00;;;;4886096;29;20839;-83
2021/04/06 00:34:03;;;;;;;0.20;0.20;;;5.30;99.90;4.20;95404.00;;;;4896551;29;20443;-81
2021/04/06 00:36:54;;;;;;;0.20;0.20;;;5.20;99.90;4.40;95395.00;;;;4897640;29;20478;-82
2021/04/06 00:39:43;;;;;;;0.20;0.20;;;5.20;99.90;4.40;95409.00;;;;4898477;29;20968;-82
2021/04/06 00:42:31;;;;;;;0.30;0.30;;;5.30;99.90;4.20;95398.00;;;;4898453;29;20451;-81
2021/04/06 00:45:22;;;;;;;0.30;0.30;;;5.30;99.90;4.30;95409.00;;;;4897695;29;20431;-84
2021/04/06 00:48:12;;;;;;;0.30;0.30;;;5.30;99.90;4.00;95399.00;;;;4898234;29;20454;-82
2021/04/06 00:51:10;;;;;;;0.30;0.30;;;5.20;99.90;3.90;95415.00;;;;4888651;29;20434;-83
2021/04/06 00:54:02;;;;;;;2.63;0.50;;;5.10;99.90;3.90;95411.00;;;;4897189;29;20443;-82
2021/04/06 00:56:58;;;;;;;0.30;0.30;;;5.10;99.90;3.80;95415.00;;;;4898039;29;20483;-82
2021/04/06 01:00:16;;;;;;;0.30;0.30;;;5.00;99.90;3.70;95411.00;;;;4898244;29;20451;-83
2021/04/06 01:03:07;;;;;;;0.30;0.30;;;4.90;99.90;3.70;95406.00;;;;4897809;29;20470;-82
2021/04/06 01:06:08;;;;;;;0.20;0.20;;;4.80;99.90;3.50;95424.00;;;;4897864;29;20438;-82
2021/04/06 01:08:58;;;;;;;0.50;0.50;;;4.80;99.90;3.50;95433.00;;;;4890270;29;20471;-82
2021/04/06 01:11:46;;;;;;;0.30;0.30;;;4.70;99.90;3.60;95422.00;;;;4895637;29;20428;-81
2021/04/06 01:14:36;;;;;;;0.30;0.30;;;4.60;99.90;3.50;95437.00;;;;4898711;29;20446;-81
2021/04/06 01:17:27;;;;;;;0.40;0.40;;;4.60;99.90;3.40;95434.00;;;;4900967;29;20538;-81
2021/04/06 01:20:17;;;;;;;0.53;0.30;;;4.60;99.90;3.20;95434.00;;;;4894900;29;20458;-79
2021/04/06 01:23:11;;;;;;;0.30;0.30;;;4.50;99.90;3.30;95446.00;;;;4895616;29;20427;-81
2021/04/06 01:25:59;;;;;;;0.40;0.40;;;4.40;98.30;3.40;95445.00;;;;4895790;29;20439;-80
2021/04/06 01:28:47;;;;;;;0.30;0.30;;;4.40;99.90;3.30;95446.00;;;;4895430;29;20454;-85
2021/04/06 01:31:35;;;;;;;0.20;0.20;;;4.40;94.80;3.40;95447.00;;;;4896129;29;20435;-84
2021/04/06 01:34:24;;;;;;;0.30;0.30;;;4.40;96.60;3.30;95435.00;;;;4896163;29;20443;-83
2021/04/06 01:37:12;;;;;;;0.40;0.40;;;4.40;97.00;3.30;95445.00;;;;4896397;29;21027;-83
2021/04/06 01:40:03;;;;;;;0.30;0.30;;;4.40;95.30;3.30;95445.00;;;;4895746;29;20451;-83
2021/04/06 01:42:51;;;;;;;1.40;1.40;;;4.30;98.60;3.20;95459.00;;;;4896716;29;20461;-84
2021/04/06 01:45:44;;;;;;;0.40;0.40;;;4.30;98.60;3.30;95463.00;;;;4897209;29;20434;-84
2021/04/06 01:48:33;;;;;;;0.30;0.30;;;4.30;91.10;3.10;95463.00;;;;4898382;29;20471;-83
2021/04/06 01:51:22;;;;;;;0.30;0.30;;;4.20;98.30;3.20;95481.00;;;;4898554;29;20441;-83
2021/04/06 01:54:12;;;;;;;0.20;0.20;;;4.20;85.80;3.30;95487.00;;;;4896836;29;20431;-82
2021/04/06 01:57:09;;;;;;;0.20;0.20;;;4.20;81.20;3.40;95493.00;;;;4898214;29;20475;-81
2021/04/06 02:00:01;;;;;;;0.30;0.30;;;4.30;77.30;3.30;95501.00;;;;4896262;29;21002;-83
2021/04/06 02:02:49;;;;;;;0.30;0.30;;;4.30;78.00;3.10;95499.00;;;;4899260;29;20430;-83
2021/04/06 02:05:37;;;;;;;0.33;0.30;;;4.30;78.00;3.10;95491.00;;;;4898437;29;20442;-82
2021/04/06 02:08:28;;;;;;;0.30;0.30;;;4.20;80.20;3.20;95511.00;;;;4903379;29;20459;-86
2021/04/06 02:11:22;;;;;;;0.30;0.30;;;4.20;80.20;3.00;95520.00;;;;4897709;29;20438;-85
2021/04/06 02:14:12;;;;;;;0.30;0.30;;;4.10;76.50;2.90;95510.00;;;;4897729;29;20968;-85
2021/04/06 02:17:04;;;;;;;0.30;0.30;;;4.10;79.60;3.00;95528.00;;;;4896777;29;20474;-83
2021/04/06 02:19:52;;;;;;;0.47;0.47;;;4.10;78.90;2.70;95526.00;;;;4885502;29;20493;-83
2021/04/06 02:22:40;;;;;;;0.30;0.30;;;4.00;79.00;2.70;95521.00;;;;4897456;29;20447;-84
2021/04/06 02:25:30;;;;;;;0.27;0.27;;;3.90;80.00;2.70;95561.00;;;;4895468;29;20804;-83
2021/04/06 02:28:18;;;;;;;3.40;0.50;;;3.90;79.00;2.60;95553.00;;;;4896904;29;20821;-83
2021/04/06 02:31:07;;;;;;;0.60;0.60;;;3.80;83.20;2.50;95560.00;;;;4897821;29;20431;-84
2021/04/06 02:33:56;;;;;;;0.30;0.30;;;3.70;83.20;2.20;95548.00;;;;4894930;29;20498;-82
2021/04/06 02:36:46;;;;;;;0.30;0.30;;;3.60;80.50;2.10;95555.00;;;;4897973;29;20486;-83
2021/04/06 02:39:39;;;;;;;0.23;0.23;;;3.50;81.10;2.10;95578.00;;;;4898426;29;21035;-83
2021/04/06 02:42:30;;;;;;;0.30;0.30;;;3.40;79.70;2.10;95560.00;;;;4896629;29;20453;-82
2021/04/06 02:45:21;;;;;;;0.20;0.20;;;3.30;81.90;2.10;95567.00;;;;4898413;29;20442;-83
2021/04/06 02:48:13;;;;;;;0.30;0.30;;;3.20;83.30;1.90;95573.00;;;;4897726;29;20466;-84
2021/04/06 02:51:01;;;;;;;0.40;0.40;;;3.20;79.50;1.80;95584.00;;;;4897376;29;20443;-84
2021/04/06 02:53:51;;;;;;;0.63;0.43;;;3.10;80.10;1.80;95578.00;;;;4896242;29;20438;-83
2021/04/06 02:56:39;;;;;;;0.40;0.40;;;3.10;81.10;1.90;95556.00;;;;4896311;29;20475;-83
2021/04/06 02:59:27;;;;;;;0.40;0.40;;;3.00;82.40;1.80;95572.00;;;;4896363;29;20459;-82
2021/04/06 03:02:15;;;;;;;0.27;0.27;;;3.00;78.40;1.80;95562.00;;;;4897116;29;20434;-83
2021/04/06 03:05:05;;;;;;;0.30;0.30;;;2.90;77.30;1.80;95576.00;;;;4898109;29;20806;-83
2021/04/06 03:07:52;;;;;;;1.27;0.40;;;3.00;78.20;1.60;95576.00;;;;4897290;29;20834;-82
2021/04/06 03:10:40;;;;;;;2.00;0.37;;;2.90;76.40;1.60;95577.00;;;;4897451;29;20426;-84
2021/04/06 03:13:29;;;;;;;0.30;0.30;;;2.90;78.20;1.60;95567.00;;;;4882951;29;20445;-82
2021/04/06 03:16:17;;;;;;;0.70;0.50;;;2.80;76.50;1.50;95567.00;;;;4897915;29;20442;-83
2021/04/06 03:19:06;;;;;;;0.30;0.30;;;2.70;75.70;1.20;95575.00;;;;4895489;29;20455;-83
2021/04/06 03:21:56;;;;;;;0.40;0.40;;;2.60;75.10;1.20;95578.00;;;;4897649;29;20447;-82
2021/04/06 03:24:44;;;;;;;0.50;0.50;;;2.50;76.20;1.20;95575.00;;;;4896818;29;20936;-82
2021/04/06 03:27:33;;;;;;;0.40;0.40;;;2.50;78.30;1.10;95573.00;;;;4897372;29;21343;-84
2021/04/06 03:30:32;;;;;;;0.40;0.40;;;2.40;76.10;1.10;95577.00;;;;4896002;29;20443;-84
2021/04/06 03:33:19;;;;;;;0.50;0.50;;;2.40;76.80;1.20;95604.00;;;;4898313;29;20447;-84
2021/04/06 03:36:08;;;;;;;1.60;0.60;;;2.30;76.40;1.20;95594.00;;;;4898503;29;20438;-85
2021/04/06 03:38:59;;;;;;;0.30;0.30;;;2.30;77.40;1.20;95595.00;;;;4898633;29;20457;-84
2021/04/06 03:41:47;;;;;;;1.33;1.03;;;2.40;77.70;1.10;95590.00;;;;4897140;29;20830;-84
2021/04/06 03:44:35;;;;;;;1.87;0.50;;;2.30;76.70;1.00;95599.00;;;;4896674;29;20952;-84
2021/04/06 03:47:23;;;;;;;0.80;0.67;;;2.20;77.30;1.00;95597.00;;;;4897054;29;20481;-82
2021/04/06 03:50:11;;;;;;;0.40;0.40;;;2.20;78.00;1.00;95583.00;;;;4901753;29;20431;-85
2021/04/06 03:53:00;;;;;;;0.40;0.40;;;2.20;76.40;1.10;95586.00;;;;4902751;29;20439;-85
2021/04/06 03:56:04;;;;;;;0.60;0.30;;;2.20;77.00;1.10;95594.00;;;;4898916;29;20430;-83
2021/04/06 03:58:56;;;;;;;0.40;0.40;;;2.20;75.70;0.90;95610.00;;;;4886319;29;20446;-83
2021/04/06 04:01:44;;;;;;;0.40;0.40;;;2.20;73.00;1.00;95625.00;;;;4896001;29;20446;-83
2021/04/06 04:04:32;;;;;;;2.87;0.93;;;2.10;73.80;0.90;95613.00;;;;4897305;29;20439;-83
2021/04/06 04:07:20;;;;;;;0.50;0.50;;;2.10;72.60;0.90;95633.00;;;;4896787;29;20904;-83
2021/04/06 04:10:11;;;;;;;0.47;0.33;;;2.10;72.40;1.00;95646.00;;;;4898237;29;20447;-84
2021/04/06 04:13:00;;;;;;;3.40;0.50;;;2.10;74.70;1.00;95647.00;;;;4897138;29;20442;-84
2021/04/06 04:15:48;;;;;;;0.40;0.40;;;2.00;75.30;0.90;95652.00;;;;4897544;29;20819;-84
2021/04/06 04:18:35;;;;;;;0.20;0.20;;;2.40;71.90;0.90;95656.00;;;;4888146;29;20482;-83
2021/04/06 04:21:23;;;;;;;1.53;0.33;;;2.10;70.70;1.00;95685.00;;;;4899799;29;20446;-83
2021/04/06 04:24:11;;;;;;;0.50;0.50;;;2.10;69.00;1.10;95688.00;;;;4898605;29;20430;-84
2021/04/06 04:26:59;;;;;;;0.83;0.63;;;2.10;70.10;1.20;95681.00;;;;4899797;29;20443;-83
2021/04/06 04:29:48;;;;;;;0.40;0.40;;;2.20;71.30;1.00;95688.00;;;;4898882;29;20459;-84
2021/04/06 04:32:36;;;;;;;1.97;0.70;;;2.20;72.00;1.10;95679.00;;;;4898728;29;20446;-83
2021/04/06 04:35:23;;;;;;;1.23;0.50;;;2.20;74.30;1.00;95690.00;;;;4899080;29;20438;-82
2021/04/06 04:38:11;;;;;;;0.53;0.40;;;2.30;75.60;1.10;95702.00;;;;4898373;29;20493;-82
2021/04/06 04:40:59;;;;;;;0.70;0.50;;;2.20;71.90;1.10;95715.00;;;;4898237;29;20431;-83
2021/04/06 04:43:47;;;;;;;0.50;0.30;;;2.20;70.90;1.00;95718.00;;;;4898291;29;21015;-83
2021/04/06 04:46:36;;;;;;;0.87;0.47;;;2.10;72.50;1.00;95723.00;;;;4897094;29;20450;-82
2021/04/06 04:49:23;;;;;;;1.87;0.60;;;2.10;72.90;1.10;95731.00;;;;4897624;29;20976;-82
2021/04/06 04:52:11;;;;;;;0.40;0.40;;;2.20;75.80;1.00;95726.00;;;;4898393;29;20431;-82
2021/04/06 04:54:59;;;;;;;0.40;0.40;;;2.20;72.00;1.10;95735.00;;;;4898276;29;20471;-83
2021/04/06 04:57:47;;;;;;;1.20;0.37;;;2.20;67.60;1.20;95749.00;;;;4889799;29;20496;-82
2021/04/06 05:00:35;;;;;;;0.80;0.30;;;2.20;69.30;1.10;95743.00;;;;4897660;29;20465;-82
2021/04/06 05:03:27;;;;;;;0.40;0.40;;;2.30;69.40;1.10;95767.00;;;;4907560;29;20443;-84
2021/04/06 05:06:14;;;;;;;0.77;0.43;;;2.30;68.20;1.10;95771.00;;;;4906050;29;20522;-83
2021/04/06 05:09:04;;;;;;;0.30;0.30;;;2.30;67.60;1.10;95787.00;;;;4899159;29;20471;-83
2021/04/06 05:11:51;;;;;;;0.93;0.70;;;2.30;69.90;1.00;95785.00;;;;4895192;29;20454;-80
2021/04/06 05:14:39;;;;;;;0.60;0.60;;;2.40;70.80;1.10;95789.00;;;;4893246;29;20423;-80
2021/04/06 05:17:27;;;;;;;0.70;0.70;;;2.20;66.60;1.10;95789.00;;;;4892543;29;20844;-81
2021/04/06 05:20:16;;;;;;;0.93;0.50;;;2.20;66.60;1.20;95801.00;;;;4896087;29;20825;-83
2021/04/06 05:23:04;;;;;;;2.13;0.80;;;2.20;66.40;1.10;95787.00;;;;4895966;29;20449;-82
2021/04/06 05:25:52;;;;;;;0.40;0.40;;;2.20;65.20;1.10;95795.00;;;;4898332;29;20446;-82
2021/04/06 05:28:39;;;;;;;0.43;0.43;;;2.30;63.90;1.20;95797.00;;;;4899322;29;20477;-81
2021/04/06 05:31:27;;;;;;;0.50;0.40;;;2.20;64.90;1.30;95794.00;;;;4900841;29;20447;-82
2021/04/06 05:34:15;;;;;;;0.40;0.40;;;2.30;67.70;1.20;95802.00;;;;4904827;29;20853;-80
2021/04/06 05:37:04;;;;;;;0.40;0.40;;;2.40;65.90;1.20;95800.00;;;;4897742;29;20466;-81
2021/04/06 05:39:53;;;;;;;0.70;0.57;;;2.30;63.90;1.30;95793.00;;;;4898023;29;20851;-81
2021/04/06 05:42:40;;;;;;;1.97;0.50;;;2.30;64.50;1.40;95793.00;;;;4894216;29;20462;-82
2021/04/06 05:45:30;;;;;;;0.50;0.50;;;2.30;64.30;1.30;95789.00;;;;4898689;29;20465;-82
2021/04/06 05:48:18;;;;;;;0.43;0.43;;;2.80;63.40;1.40;95791.00;;;;4898065;29;20837;-83
2021/04/06 05:51:07;;;;;;;0.60;0.50;;;2.40;63.10;1.30;95787.00;;;;4897872;29;20458;-81
2021/04/06 05:53:56;;;;;;;0.70;0.60;;;2.50;62.30;1.30;95794.00;;;;4897242;29;20905;-82
2021/04/06 05:56:44;;;;;;;1.80;0.87;;;2.50;61.10;1.50;95783.00;;;;4897968;29;20447;-82
2021/04/06 05:59:32;;;;;;;1.00;0.70;;;2.50;61.60;1.30;95783.00;;;;4898436;29;20447;-81
2021/04/06 06:02:20;;;;;;;3.40;0.50;;;2.50;59.60;1.20;95784.00;;;;4897704;29;20936;-79
2021/04/06 06:05:09;;;;;;;0.47;0.47;;;2.50;59.10;1.20;95776.00;;;;4896825;29;20708;-80
2021/04/06 06:07:57;;;;;;;0.47;0.47;;;2.40;58.60;1.10;95764.00;;;;4894295;29;20441;-81
2021/04/06 06:10:46;;;;;;;0.67;0.50;;;2.30;59.10;1.10;95755.00;;;;4891061;29;20429;-81
2021/04/06 06:13:36;;;;;;;0.43;0.43;;;2.30;59.20;1.10;95773.00;;;;4897536;29;20435;-79
2021/04/06 06:16:26;;;;;;;0.73;0.70;;;2.30;58.10;1.10;95792.00;;;;4896913;29;20435;-80
2021/04/06 06:19:16;;;;;;;0.67;0.63;;;2.30;58.50;1.20;95790.00;;;;4897198;29;20481;-80
2021/04/06 06:22:12;;;;;;;0.70;0.50;;;2.30;58.70;1.30;95799.00;;;;4897198;29;20825;-81
2021/04/06 06:25:06;;;;;;;0.80;0.77;;;2.30;59.60;1.40;95802.00;;;;4893126;29;20427;-82
2021/04/06 06:27:54;;;;;;;0.60;0.60;;;2.40;59.70;1.40;95799.00;;;;4892846;29;20443;-82
2021/04/06 06:30:42;;;;;;;0.70;0.70;;;2.40;59.10;1.50;95796.00;;;;4898123;29;20434;-81
2021/04/06 06:33:33;;;;;;;0.57;0.57;;;2.50;59.00;1.60;95790.00;;;;4897983;29;20825;-81
2021/04/06 06:36:25;;;;;;;1.10;0.70;;;2.60;57.50;1.40;95776.00;;;;4897861;29;20545;-82
2021/04/06 06:39:18;;;;;;;0.87;0.40;;;2.60;55.40;1.70;95782.00;;;;4897595;29;20945;-81
2021/04/06 06:42:11;;;;;;;0.40;0.40;;;2.60;56.50;1.70;95780.00;;;;4898802;29;20446;-81
2021/04/06 06:45:02;;;;;;;0.87;0.70;;;2.70;56.60;1.80;95780.00;;;;4892551;29;20469;-85
2021/04/06 06:47:55;;;;;;;0.43;0.43;;;2.80;56.20;1.90;95766.00;;;;4893449;29;20963;-85
2021/04/06 06:50:47;;;;;;;0.63;0.57;;;2.80;55.70;2.20;95775.00;;;;4889187;29;20818;-86
2021/04/06 06:53:37;;;;;;;1.23;0.67;;;4.20;56.20;2.40;95794.00;;;;4892800;29;20443;-86
2021/04/06 06:56:36;;;;;;;0.57;0.57;;;3.10;56.10;2.50;95817.00;;;;4891927;29;20472;-86
2021/04/06 06:59:36;;;;;;;0.50;0.50;;;3.30;55.50;2.50;95812.00;;;;4894564;29;20459;-85
2021/04/06 07:02:27;;;;;;;0.93;0.57;;;3.40;54.90;2.90;95814.00;;;;4883811;29;20843;-85
2021/04/06 07:05:21;;;;;;;0.60;0.60;;;4.00;55.40;2.70;95831.00;;;;4891629;29;20810;-84
2021/04/06 07:08:09;;;;;;;0.40;0.40;;;3.70;54.30;2.70;95839.00;;;;4892996;29;20971;-84
2021/04/06 07:11:00;;;;;;;0.77;0.77;;;3.70;53.00;2.40;95830.00;;;;4894353;29;20446;-85
2021/04/06 07:13:51;;;;;;;1.40;1.30;;;3.60;52.00;2.40;95842.00;;;;4893568;29;20519;-85
2021/04/06 07:16:41;;;;;;;1.73;1.03;;;3.50;53.00;2.20;95849.00;;;;4910053;29;20465;-85
2021/04/06 07:19:35;;;;;;;0.80;0.70;;;3.50;52.40;2.20;95850.00;;;;4895502;29;20457;-87
2021/04/06 07:22:24;;;;;;;13.00;6.43;;;3.40;53.60;2.40;95869.00;;;;4896149;29;20435;-85
2021/04/06 07:25:13;;;;;;;2.53;2.07;;;3.40;53.60;1.80;95883.00;;;;4893822;29;20427;-86
2021/04/06 07:28:03;;;;;;;1.33;0.80;;;3.30;51.30;1.90;95875.00;;;;4893316;29;20466;-84
2021/04/06 07:30:51;;;;;;;1.10;0.70;;;3.20;52.10;2.00;95878.00;;;;4896989;29;20454;-85
2021/04/06 07:33:40;;;;;;;0.97;0.50;;;3.20;52.00;2.20;95863.00;;;;4892828;29;20443;-84
2021/04/06 07:36:29;;;;;;;0.70;0.70;;;3.20;51.90;2.40;95887.00;;;;4898089;29;20461;-84
2021/04/06 07:39:17;;;;;;;3.53;1.33;;;3.20;51.70;2.00;95875.00;;;;4898330;29;20450;-84
2021/04/06 07:42:06;;;;;;;2.50;1.33;;;3.30;49.70;2.50;95863.00;;;;4897901;29;20449;-82
2021/04/06 07:44:53;;;;;;;0.70;0.70;;;3.40;51.30;2.90;95879.00;;;;4897119;29;20454;-85
2021/04/06 07:47:42;;;;;;;0.50;0.50;;;3.50;51.10;2.80;95874.00;;;;4898578;29;20979;-85
2021/04/06 07:50:37;;;;;;;0.67;0.60;;;3.70;50.90;3.70;95878.00;;;;4899485;29;20469;-85
2021/04/06 07:53:28;;;;;;;2.47;0.70;;;4.00;51.90;2.50;95876.00;;;;4899390;29;20438;-85
2021/04/06 07:56:54;;;;;;;0.67;0.57;;;3.80;47.80;3.10;95869.00;;;;4898872;29;20442;-84
2021/04/06 07:59:53;;;;;;;0.60;0.60;;;3.90;49.50;3.10;95866.00;;;;4893576;29;20487;-83
2021/04/06 08:02:47;;;;;;;1.00;0.73;;;4.00;49.30;3.40;95884.00;;;;4889154;29;20440;-83
2021/04/06 08:05:35;;;;;;;1.40;0.60;;;4.10;49.70;3.10;95878.00;;;;4887807;29;20906;-84
2021/04/06 08:08:36;;;;;;;0.87;0.60;;;4.10;48.70;3.30;95911.00;;;;4898292;29;20462;-84
2021/04/06 08:12:06;;;;;;;0.43;0.43;;;4.20;48.70;4.00;95936.00;;;;4898443;29;20438;-84
2021/04/06 08:14:56;;;;;;;1.30;1.07;;;4.40;49.50;3.10;95919.00;;;;4898063;29;20515;-83
2021/04/06 08:17:51;;;;;;;2.57;0.60;;;4.40;48.40;3.00;95918.00;;;;4898272;29;20490;-85
2021/04/06 08:20:45;;;;;;;0.77;0.50;;;4.80;47.90;2.90;95916.00;;;;4898827;29;20443;-84
2021/04/06 08:23:46;;;;;;;1.13;0.63;;;4.20;47.40;3.10;95916.00;;;;4897706;29;20818;-84
2021/04/06 08:26:36;;;;;;;0.70;0.60;;;4.10;48.20;3.30;95907.00;;;;4900172;29;20440;-84
2021/04/06 08:29:29;;;;;;;1.40;0.97;;;4.20;48.70;3.40;95908.00;;;;4898248;29;20447;-84
2021/04/06 08:32:17;;;;;;;1.90;0.50;;;4.30;49.10;3.40;95904.00;;;;4897870;29;20805;-84
2021/04/06 08:35:06;;;;;;;0.53;0.40;;;4.40;48.30;3.20;95896.00;;;;4896385;29;20439;-84
2021/04/06 08:37:53;;;;;;;0.43;0.43;;;4.40;47.20;3.70;95905.00;;;;4888777;29;20470;-84
2021/04/06 08:40:47;;;;;;;0.60;0.60;;;4.70;48.00;4.20;95896.00;;;;4896903;29;20455;-83
2021/04/06 08:43:47;;;;;;;0.70;0.70;;;4.60;49.00;4.40;95892.00;;;;4896537;29;20458;-85
2021/04/06 08:46:48;;;;;;;1.27;0.50;;;4.90;48.60;4.70;95900.00;;;;4896238;29;20426;-85
2021/04/06 08:49:42;;;;;;;0.40;0.40;;;5.20;49.00;4.30;95897.00;;;;4914170;29;20463;-87
2021/04/06 08:52:30;;;;;;;0.87;0.50;;;5.40;47.60;4.70;95893.00;;;;4898898;29;20434;-87
2021/04/06 08:55:17;;;;;;;0.50;0.50;;;5.40;46.90;4.30;95880.00;;;;4904882;29;20967;-85
2021/04/06 08:58:07;;;;;;;1.00;0.57;;;5.40;46.00;4.70;95887.00;;;;4890571;29;20478;-84
2021/04/06 09:01:02;;;;;;;0.90;0.60;;;5.50;47.00;4.80;95890.00;;;;4911182;29;20459;-85
2021/04/06 09:03:49;;;;;;;0.57;0.57;;;5.50;47.10;4.50;95895.00;;;;4897300;29;20486;-81
2021/04/06 09:06:38;;;;;;;0.40;0.40;;;5.60;46.10;4.10;95895.00;;;;4886390;29;20861;-80
2021/04/06 09:09:28;;;;;;;0.63;0.50;;;5.60;45.60;4.40;95905.00;;;;4898982;29;20462;-81
2021/04/06 09:12:16;;;;;;;0.40;0.40;;;5.40;44.50;4.20;95895.00;;;;4891452;29;20454;-81
2021/04/06 09:15:08;;;;;;;1.23;0.50;;;5.40;45.90;4.50;95899.00;;;;4901271;29;20454;-83
2021/04/06 09:18:02;;;;;;;0.33;0.33;;;5.50;45.80;4.40;95903.00;;;;4902047;29;20486;-81
2021/04/06 09:20:51;;;;;;;0.60;0.60;;;5.50;45.10;3.70;95893.00;;;;4898719;29;20469;-81
2021/04/06 09:23:39;;;;;;;0.57;0.57;;;5.20;43.90;4.50;95890.00;;;;4898731;29;20454;-81
2021/04/06 09:26:29;;;;;;;0.50;0.50;;;5.30;45.30;5.00;95891.00;;;;4900236;29;20427;-82
2021/04/06 09:29:20;;;;;;;1.50;0.57;;;5.50;47.40;5.10;95888.00;;;;4900138;29;20466;-81
2021/04/06 09:32:11;;;;;;;0.93;0.50;;;5.70;46.80;5.50;95903.00;;;;4899714;29;20438;-82
2021/04/06 09:35:01;;;;;;;4.60;0.50;;;6.00;46.90;5.30;95878.00;;;;4894700;29;20439;-82
2021/04/06 09:37:49;;;;;;;0.63;0.63;;;6.10;46.00;5.00;95891.00;;;;4894222;29;20246;-82
2021/04/06 09:40:42;;;;;;;0.93;0.50;;;6.10;45.00;4.70;95883.00;;;;4896985;29;20214;-82
2021/04/06 09:43:30;;;;;;;0.80;0.63;;;6.00;44.80;5.20;95883.00;;;;4897755;29;20225;-82
2021/04/06 09:46:18;;;;;;;0.90;0.60;;;6.10;45.50;4.70;95871.00;;;;4894552;29;20229;-81
2021/04/06 09:49:07;;;;;;;3.43;1.03;;;6.10;43.50;4.40;95867.00;;;;4894202;29;20237;-81
2021/04/06 09:51:56;;;;;;;0.70;0.50;;;5.90;42.90;4.90;95853.00;;;;4896700;29;20710;-81
2021/04/06 09:54:49;;;;;;;1.00;1.00;;;5.90;45.30;5.20;95849.00;;;;4894972;29;20206;-81
2021/04/06 09:57:39;;;;;;;0.40;0.40;;;6.00;46.10;5.40;95842.00;;;;4893956;29;20475;-82
2021/04/06 10:00:35;;;;;;;0.60;0.60;;;6.10;46.10;5.20;95852.00;;;;4894667;29;20603;-83
2021/04/06 10:03:24;;;;;;;0.50;0.50;;;6.20;44.60;5.40;95863.00;;;;4895757;29;20273;-83
2021/04/06 10:06:14;;;;;;;5.00;0.63;;;6.30;44.70;5.10;95862.00;;;;4895575;29;20202;-81
2021/04/06 10:09:23;;;;;;;1.90;0.60;;;6.30;43.50;5.40;95878.00;;;;4895190;29;20245;-81
2021/04/06 10:12:12;;;;;;;1.10;0.70;;;6.40;43.90;5.80;95884.00;;;;4893222;29;20221;-82
2021/04/06 10:15:01;;;;;;;2.50;0.43;;;6.50;44.30;5.90;95872.00;;;;4894876;29;20221;-82
2021/04/06 10:17:50;;;;;;;0.53;0.43;;;6.60;44.10;5.90;95862.00;;;;4896415;29;20226;-81
2021/04/06 10:20:42;;;;;;;3.50;0.70;;;6.70;44.00;6.60;95873.00;;;;4894193;29;20213;-81
2021/04/06 10:23:34;;;;;;;0.50;0.50;;;6.90;44.90;6.70;95858.00;;;;4898443;29;20222;-81
2021/04/06 10:26:24;;;;;;;3.40;2.17;;;7.20;45.10;6.40;95870.00;;;;4900178;29;20333;-80
2021/04/06 10:29:13;;;;;;;2.50;1.03;;;7.40;43.80;6.20;95854.00;;;;4891296;29;20238;-81
2021/04/06 10:32:02;;;;;;;8.60;5.33;;;7.40;42.90;5.90;95857.00;;;;4897194;29;20217;-81
2021/04/06 10:35:00;;;;;;;2.70;2.13;;;7.30;43.20;6.40;95847.00;;;;4897020;29;20208;-82
2021/04/06 10:37:51;;;;;;;2.30;0.80;;;7.30;44.10;6.80;95846.00;;;;4891419;29;20256;-82
2021/04/06 10:40:42;;;;;;;2.63;2.43;;;7.30;44.30;6.70;95840.00;;;;4897143;29;20683;-82
2021/04/06 10:43:30;;;;;;;1.73;1.63;;;7.40;44.00;6.40;95859.00;;;;4898774;29;20229;-82
2021/04/06 10:46:22;;;;;;;2.50;0.70;;;7.50;43.90;6.10;95840.00;;;;4902271;29;20205;-81
2021/04/06 10:49:10;;;;;;;0.50;0.50;;;7.30;42.30;5.90;95832.00;;;;4896440;29;20755;-80
2021/04/06 10:52:01;;;;;;;0.80;0.80;;;7.30;41.10;6.20;95838.00;;;;4896334;29;20202;-82
2021/04/06 10:54:51;;;;;;;0.70;0.60;;;7.30;43.10;6.10;95847.00;;;;4896275;29;20210;-82
2021/04/06 10:57:40;;;;;;;1.00;0.47;;;7.20;42.90;4.80;95853.00;;;;4898419;29;20604;-81
2021/04/06 11:00:31;;;;;;;1.20;0.70;;;7.00;40.20;5.40;95858.00;;;;4895507;29;20209;-81
2021/04/06 11:03:20;;;;;;;1.30;1.07;;;6.60;41.80;6.20;95867.00;;;;4896435;29;20598;-81
2021/04/06 11:06:17;;;;;;;3.57;2.87;;;6.70;43.40;6.10;95865.00;;;;4895989;29;20214;-81
2021/04/06 11:09:13;;;;;;;0.50;0.50;;;6.80;43.60;6.00;95862.00;;;;4897830;29;20253;-81
2021/04/06 11:12:01;;;;;;;1.47;0.63;;;6.90;43.50;6.10;95864.00;;;;4897579;29;20218;-81
2021/04/06 11:14:50;;;;;;;2.13;1.60;;;7.00;43.60;6.40;95849.00;;;;4896889;29;20206;-81
2021/04/06 11:17:39;;;;;;;2.50;1.33;;;7.10;44.20;6.70;95838.00;;;;4897324;29;20210;-82
2021/04/06 11:20:28;;;;;;;3.40;1.60;;;7.20;44.30;5.70;95846.00;;;;4897799;29;20206;-81
2021/04/06 11:23:17;;;;;;;6.93;4.20;;;7.10;41.50;5.20;95839.00;;;;4898094;29;20225;-82
2021/04/06 11:26:04;;;;;;;2.63;1.33;;;7.00;42.20;5.80;95837.00;;;;4896696;29;20228;-81
2021/04/06 11:28:52;;;;;;;2.60;2.37;;;6.80;43.70;6.50;95845.00;;;;4896968;29;20245;-79
2021/04/06 11:31:45;;;;;;;2.47;1.00;;;7.00;44.80;6.20;95830.00;;;;4897727;29;20206;-82
2021/04/06 11:34:33;;;;;;;1.90;0.80;;;7.10;45.00;6.20;95829.00;;;;4895224;29;20202;-81
2021/04/06 11:37:21;;;;;;;0.80;0.80;;;7.10;44.30;5.50;95828.00;;;;4895590;29;20206;-81
2021/04/06 11:40:09;;;;;;;0.50;0.50;;;7.00;44.50;6.40;95859.00;;;;4895244;29;20198;-80
2021/04/06 11:42:57;;;;;;;0.50;0.50;;;7.00;45.10;5.50;95852.00;;;;4894908;29;20695;-81
2021/04/06 11:45:45;;;;;;;0.73;0.60;;;6.90;44.60;6.00;95847.00;;;;4893937;29;20420;-82
2021/04/06 11:48:34;;;;;;;1.00;0.50;;;6.90;45.40;6.30;95841.00;;;;4888958;29;20241;-81
2021/04/06 11:51:26;;;;;;;2.33;0.90;;;7.00;45.10;6.60;95839.00;;;;4893106;29;20210;-84
2021/04/06 11:54:19;;;;;;;2.90;2.17;;;7.20;45.40;6.60;95838.00;;;;4884612;29;20210;-82
2021/04/06 11:57:12;;;;;;;1.17;0.90;;;7.30;45.10;6.60;95847.00;;;;4892736;29;20215;-81
2021/04/06 11:59:59;;;;;;;1.40;0.80;;;7.40;44.30;6.80;95853.00;;;;4894845;29;20518;-81
2021/04/06 12:02:50;;;;;;;2.97;0.87;;;7.60;44.70;6.80;95854.00;;;;4894540;29;20206;-82
2021/04/06 12:05:39;;;;;;;1.87;1.13;;;7.60;43.70;6.90;95838.00;;;;4893639;29;20596;-84
2021/04/06 12:08:27;;;;;;;0.70;0.57;;;7.70;44.10;6.70;95845.00;;;;4894084;29;20245;-83
2021/04/06 12:11:15;;;;;;;2.47;0.90;;;7.80;44.00;6.10;95842.00;;;;4888200;29;20211;-82
2021/04/06 12:14:04;;;;;;;1.63;0.40;;;7.60;44.50;5.80;95833.00;;;;4896843;29;20222;-81
2021/04/06 12:16:52;;;;;;;2.17;0.50;;;7.40;43.80;5.70;95823.00;;;;4893752;29;20202;-82
2021/04/06 12:19:40;;;;;;;1.20;1.10;;;7.10;44.60;5.90;95820.00;;;;4897344;29;20241;-80
2021/04/06 12:22:29;;;;;;;6.83;5.53;;;7.00;43.00;6.50;95804.00;;;;4898627;29;20213;-81
2021/04/06 12:25:18;;;;;;;1.97;1.47;;;7.10;43.60;7.60;95776.00;;;;4899709;29;20826;-83
2021/04/06 12:28:06;;;;;;;1.00;0.90;;;7.50;45.00;7.80;95810.00;;;;4897759;29;20237;-82
2021/04/06 12:30:54;;;;;;;2.33;1.83;;;7.90;45.50;7.00;95786.00;;;;4901508;29;20221;-81
2021/04/06 12:33:43;;;;;;;1.57;1.33;;;8.00;44.30;7.00;95785.00;;;;4892249;29;20210;-79
2021/04/06 12:36:30;;;;;;;0.87;0.57;;;8.10;43.50;6.30;95759.00;;;;4896617;29;20284;-80
2021/04/06 12:39:19;;;;;;;1.90;1.10;;;7.80;42.40;6.40;95749.00;;;;4902530;29;20254;-83
2021/04/06 12:42:07;;;;;;;4.63;1.23;;;7.70;43.70;6.10;95768.00;;;;4916117;29;20236;-79
2021/04/06 12:44:55;;;;;;;0.80;0.50;;;7.20;44.50;6.40;95758.00;;;;4911026;29;20210;-81
2021/04/06 12:47:43;;;;;;;1.00;0.63;;;7.20;43.10;6.20;95784.00;;;;4900146;29;20233;-81
2021/04/06 12:50:32;;;;;;;4.40;0.80;;;7.20;44.00;5.40;95781.00;;;;4898694;29;20569;-81
2021/04/06 12:53:20;;;;;;;0.77;0.77;;;6.90;43.90;5.20;95774.00;;;;4898539;29;20617;-80